Terminal Aerodrome Forecast
Issued by NWS

Home | Current Version | Previous Version | Text Only | Print | Product List | Glossary On
Versions: 1 2 3 4 5 6 7 8 9 10 11 12 13 14 15 16 17 18 19 20 21 22 23 24
000
FTUS44 KBMX 201932 AAA
TAFTCL
TAF AMD
KTCL 201932Z 2020/2118 VRB03KT P6SM VCTS SCT050CB
      TEMPO 2020/2023 2SM TSRA
     FM210100 00000KT P6SM FEW050=

USA.gov is the U.S. government's official web portal to all federal, state and local government web resources and services.